sensor_id;sensor_type;location;lat;lon;timestamp;P1;durP1;ratioP1;P2;durP2;ratioP2
26582;SDS011;14230;45.382;10.998;2022-09-03T00:01:27;5.78;;;3.13;;
26582;SDS011;14230;45.382;10.998;2022-09-03T00:04:11;5.47;;;3.70;;
26582;SDS011;14230;45.382;10.998;2022-09-03T00:07:03;4.68;;;3.65;;
26582;SDS011;14230;45.382;10.998;2022-09-03T00:09:41;5.43;;;2.95;;
26582;SDS011;14230;45.382;10.998;2022-09-03T00:12:13;5.57;;;3.42;;
26582;SDS011;14230;45.382;10.998;2022-09-03T00:14:52;5.30;;;2.88;;
26582;SDS011;14230;45.382;10.998;2022-09-03T00:17:28;8.48;;;3.42;;
26582;SDS011;14230;45.382;10.998;2022-09-03T00:20:02;9.43;;;3.40;;
26582;SDS011;14230;45.382;10.998;2022-09-03T00:22:35;6.75;;;3.78;;
26582;SDS011;14230;45.382;10.998;2022-09-03T00:25:08;7.80;;;3.50;;
26582;SDS011;14230;45.382;10.998;2022-09-03T00:27:40;3.92;;;3.53;;
26582;SDS011;14230;45.382;10.998;2022-09-03T00:30:10;4.97;;;3.40;;
26582;SDS011;14230;45.382;10.998;2022-09-03T00:35:26;7.57;;;3.45;;
26582;SDS011;14230;45.382;10.998;2022-09-03T00:38:03;7.57;;;3.50;;
26582;SDS011;14230;45.382;10.998;2022-09-03T00:40:47;6.32;;;3.75;;
26582;SDS011;14230;45.382;10.998;2022-09-03T00:54:55;8.68;;;4.53;;
26582;SDS011;14230;45.382;10.998;2022-09-03T01:00:27;7.45;;;6.38;;
26582;SDS011;14230;45.382;10.998;2022-09-03T01:03:06;8.40;;;6.35;;
26582;SDS011;14230;45.382;10.998;2022-09-03T01:05:42;9.63;;;6.57;;
26582;SDS011;14230;45.382;10.998;2022-09-03T01:11:50;7.05;;;5.65;;
26582;SDS011;14230;45.382;10.998;2022-09-03T01:25:51;7.82;;;4.68;;
26582;SDS011;14230;45.382;10.998;2022-09-03T01:31:07;6.65;;;4.47;;
26582;SDS011;14230;45.382;10.998;2022-09-03T01:42:01;6.57;;;4.38;;
26582;SDS011;14230;45.382;10.998;2022-09-03T01:58:59;9.60;;;6.68;;
26582;SDS011;14230;45.382;10.998;2022-09-03T02:01:52;7.80;;;7.00;;
26582;SDS011;14230;45.382;10.998;2022-09-03T02:04:27;9.95;;;6.53;;
26582;SDS011;14230;45.382;10.998;2022-09-03T02:06:55;8.77;;;6.28;;
26582;SDS011;14230;45.382;10.998;2022-09-03T02:09:26;9.77;;;6.68;;
26582;SDS011;14230;45.382;10.998;2022-09-03T02:12:05;10.80;;;7.55;;
26582;SDS011;14230;45.382;10.998;2022-09-03T02:14:37;10.32;;;8.02;;
26582;SDS011;14230;45.382;10.998;2022-09-03T02:17:04;9.45;;;8.15;;
26582;SDS011;14230;45.382;10.998;2022-09-03T02:19:34;12.02;;;9.80;;
26582;SDS011;14230;45.382;10.998;2022-09-03T02:22:03;10.30;;;9.20;;
26582;SDS011;14230;45.382;10.998;2022-09-03T02:24:31;12.15;;;9.52;;
26582;SDS011;14230;45.382;10.998;2022-09-03T02:26:59;13.23;;;9.60;;
26582;SDS011;14230;45.382;10.998;2022-09-03T02:29:26;10.40;;;9.40;;
26582;SDS011;14230;45.382;10.998;2022-09-03T02:31:54;15.55;;;10.48;;
26582;SDS011;14230;45.382;10.998;2022-09-03T02:34:21;19.95;;;10.18;;
26582;SDS011;14230;45.382;10.998;2022-09-03T02:36:49;12.77;;;10.30;;
26582;SDS011;14230;45.382;10.998;2022-09-03T02:39:18;12.18;;;9.80;;
26582;SDS011;14230;45.382;10.998;2022-09-03T02:41:49;14.13;;;9.98;;
26582;SDS011;14230;45.382;10.998;2022-09-03T02:44:23;10.20;;;9.13;;
26582;SDS011;14230;45.382;10.998;2022-09-03T02:46:56;11.77;;;9.80;;
26582;SDS011;14230;45.382;10.998;2022-09-03T02:49:25;12.90;;;9.45;;
26582;SDS011;14230;45.382;10.998;2022-09-03T02:52:04;12.63;;;9.95;;
26582;SDS011;14230;45.382;10.998;2022-09-03T02:54:35;11.02;;;9.93;;
26582;SDS011;14230;45.382;10.998;2022-09-03T02:57:06;13.15;;;8.98;;
26582;SDS011;14230;45.382;10.998;2022-09-03T02:59:35;15.48;;;9.65;;
26582;SDS011;14230;45.382;10.998;2022-09-03T03:02:02;15.45;;;10.43;;
26582;SDS011;14230;45.382;10.998;2022-09-03T03:04:30;14.05;;;9.25;;
26582;SDS011;14230;45.382;10.998;2022-09-03T03:06:59;11.30;;;8.57;;
26582;SDS011;14230;45.382;10.998;2022-09-03T03:09:26;12.73;;;9.32;;
26582;SDS011;14230;45.382;10.998;2022-09-03T03:11:54;13.45;;;9.80;;
26582;SDS011;14230;45.382;10.998;2022-09-03T03:14:22;11.38;;;9.35;;
26582;SDS011;14230;45.382;10.998;2022-09-03T03:16:50;12.48;;;9.15;;
26582;SDS011;14230;45.382;10.998;2022-09-03T03:19:18;13.20;;;9.48;;
26582;SDS011;14230;45.382;10.998;2022-09-03T03:21:45;11.18;;;9.07;;
26582;SDS011;14230;45.382;10.998;2022-09-03T03:24:13;13.75;;;8.90;;
26582;SDS011;14230;45.382;10.998;2022-09-03T03:26:40;14.88;;;8.65;;
26582;SDS011;14230;45.382;10.998;2022-09-03T03:29:08;10.13;;;9.10;;
26582;SDS011;14230;45.382;10.998;2022-09-03T03:31:41;10.90;;;9.20;;
26582;SDS011;14230;45.382;10.998;2022-09-03T03:34:09;10.70;;;9.52;;
26582;SDS011;14230;45.382;10.998;2022-09-03T03:36:36;15.27;;;9.75;;
26582;SDS011;14230;45.382;10.998;2022-09-03T03:39:04;12.15;;;9.95;;
26582;SDS011;14230;45.382;10.998;2022-09-03T03:41:32;10.65;;;8.48;;
26582;SDS011;14230;45.382;10.998;2022-09-03T03:44:02;12.27;;;9.15;;
26582;SDS011;14230;45.382;10.998;2022-09-03T03:46:38;11.13;;;9.27;;
26582;SDS011;14230;45.382;10.998;2022-09-03T03:49:07;11.05;;;8.77;;
26582;SDS011;14230;45.382;10.998;2022-09-03T03:51:35;12.35;;;8.80;;
26582;SDS011;14230;45.382;10.998;2022-09-03T03:54:04;11.68;;;9.20;;
26582;SDS011;14230;45.382;10.998;2022-09-03T03:56:32;12.85;;;9.52;;
26582;SDS011;14230;45.382;10.998;2022-09-03T03:59:00;15.23;;;8.98;;
26582;SDS011;14230;45.382;10.998;2022-09-03T04:01:28;13.80;;;9.85;;
26582;SDS011;14230;45.382;10.998;2022-09-03T04:03:56;10.48;;;8.93;;
26582;SDS011;14230;45.382;10.998;2022-09-03T04:06:26;12.18;;;8.13;;
26582;SDS011;14230;45.382;10.998;2022-09-03T04:08:54;13.00;;;8.57;;
26582;SDS011;14230;45.382;10.998;2022-09-03T04:11:22;12.82;;;9.00;;
26582;SDS011;14230;45.382;10.998;2022-09-03T04:13:50;12.00;;;9.60;;
26582;SDS011;14230;45.382;10.998;2022-09-03T04:16:19;14.27;;;9.80;;
26582;SDS011;14230;45.382;10.998;2022-09-03T04:18:48;15.15;;;9.90;;
26582;SDS011;14230;45.382;10.998;2022-09-03T04:21:17;14.30;;;10.63;;
26582;SDS011;14230;45.382;10.998;2022-09-03T04:23:47;14.13;;;9.82;;
26582;SDS011;14230;45.382;10.998;2022-09-03T04:26:16;13.02;;;11.00;;
26582;SDS011;14230;45.382;10.998;2022-09-03T04:28:46;15.55;;;9.95;;
26582;SDS011;14230;45.382;10.998;2022-09-03T04:31:15;14.55;;;10.60;;
26582;SDS011;14230;45.382;10.998;2022-09-03T04:33:45;15.45;;;10.82;;
26582;SDS011;14230;45.382;10.998;2022-09-03T04:36:14;21.33;;;10.32;;
26582;SDS011;14230;45.382;10.998;2022-09-03T04:38:44;14.00;;;10.98;;
26582;SDS011;14230;45.382;10.998;2022-09-03T04:41:14;14.82;;;11.55;;
26582;SDS011;14230;45.382;10.998;2022-09-03T04:43:46;18.38;;;11.27;;
26582;SDS011;14230;45.382;10.998;2022-09-03T04:46:17;12.20;;;10.60;;
26582;SDS011;14230;45.382;10.998;2022-09-03T04:48:47;16.30;;;10.50;;
26582;SDS011;14230;45.382;10.998;2022-09-03T04:51:18;15.55;;;11.13;;
26582;SDS011;14230;45.382;10.998;2022-09-03T04:53:51;21.70;;;11.57;;
26582;SDS011;14230;45.382;10.998;2022-09-03T04:56:23;31.13;;;12.30;;
26582;SDS011;14230;45.382;10.998;2022-09-03T04:59:02;36.97;;;13.38;;
26582;SDS011;14230;45.382;10.998;2022-09-03T05:01:32;28.40;;;11.77;;
26582;SDS011;14230;45.382;10.998;2022-09-03T05:04:01;25.75;;;11.48;;
26582;SDS011;14230;45.382;10.998;2022-09-03T05:06:30;23.50;;;11.90;;
26582;SDS011;14230;45.382;10.998;2022-09-03T05:08:59;18.60;;;11.07;;
26582;SDS011;14230;45.382;10.998;2022-09-03T05:11:27;19.20;;;10.52;;
26582;SDS011;14230;45.382;10.998;2022-09-03T05:13:55;20.63;;;9.98;;
26582;SDS011;14230;45.382;10.998;2022-09-03T05:16:24;19.58;;;9.05;;
26582;SDS011;14230;45.382;10.998;2022-09-03T05:18:55;16.08;;;9.25;;
26582;SDS011;14230;45.382;10.998;2022-09-03T05:21:27;14.93;;;10.00;;
26582;SDS011;14230;45.382;10.998;2022-09-03T05:23:55;18.10;;;10.82;;
26582;SDS011;14230;45.382;10.998;2022-09-03T05:26:27;19.17;;;9.93;;
26582;SDS011;14230;45.382;10.998;2022-09-03T05:31:26;12.43;;;9.18;;
26582;SDS011;14230;45.382;10.998;2022-09-03T05:33:58;21.40;;;9.20;;
26582;SDS011;14230;45.382;10.998;2022-09-03T05:36:29;13.40;;;9.73;;
26582;SDS011;14230;45.382;10.998;2022-09-03T05:39:01;14.88;;;9.13;;
26582;SDS011;14230;45.382;10.998;2022-09-03T05:41:30;18.80;;;8.88;;
26582;SDS011;14230;45.382;10.998;2022-09-03T05:43:59;47.72;;;30.42;;
26582;SDS011;14230;45.382;10.998;2022-09-03T05:46:28;45.65;;;38.63;;
26582;SDS011;14230;45.382;10.998;2022-09-03T05:49:00;21.23;;;14.45;;
26582;SDS011;14230;45.382;10.998;2022-09-03T05:51:29;16.50;;;9.82;;
26582;SDS011;14230;45.382;10.998;2022-09-03T05:53:57;12.45;;;8.32;;
26582;SDS011;14230;45.382;10.998;2022-09-03T05:56:27;11.50;;;6.97;;
26582;SDS011;14230;45.382;10.998;2022-09-03T05:58:57;20.85;;;6.38;;
26582;SDS011;14230;45.382;10.998;2022-09-03T06:01:29;7.20;;;6.43;;
26582;SDS011;14230;45.382;10.998;2022-09-03T06:04:01;9.82;;;7.18;;
26582;SDS011;14230;45.382;10.998;2022-09-03T06:06:31;18.52;;;7.65;;
26582;SDS011;14230;45.382;10.998;2022-09-03T06:09:01;18.67;;;7.13;;
26582;SDS011;14230;45.382;10.998;2022-09-03T06:11:34;19.17;;;7.78;;
26582;SDS011;14230;45.382;10.998;2022-09-03T06:14:05;21.23;;;7.80;;
26582;SDS011;14230;45.382;10.998;2022-09-03T06:16:38;23.38;;;6.57;;
26582;SDS011;14230;45.382;10.998;2022-09-03T06:19:08;10.43;;;5.65;;
26582;SDS011;14230;45.382;10.998;2022-09-03T06:21:37;9.02;;;5.10;;
26582;SDS011;14230;45.382;10.998;2022-09-03T06:24:12;10.05;;;4.13;;
26582;SDS011;14230;45.382;10.998;2022-09-03T06:26:42;11.98;;;4.22;;
26582;SDS011;14230;45.382;10.998;2022-09-03T06:29:11;11.13;;;4.22;;
26582;SDS011;14230;45.382;10.998;2022-09-03T06:31:39;12.65;;;3.75;;
26582;SDS011;14230;45.382;10.998;2022-09-03T06:34:06;6.95;;;3.75;;
26582;SDS011;14230;45.382;10.998;2022-09-03T06:36:34;7.07;;;3.97;;
26582;SDS011;14230;45.382;10.998;2022-09-03T06:39:02;7.60;;;3.92;;
26582;SDS011;14230;45.382;10.998;2022-09-03T06:41:30;8.18;;;4.22;;
26582;SDS011;14230;45.382;10.998;2022-09-03T06:44:01;22.92;;;12.23;;
26582;SDS011;14230;45.382;10.998;2022-09-03T06:46:31;29.25;;;15.07;;
26582;SDS011;14230;45.382;10.998;2022-09-03T06:49:00;21.98;;;11.95;;
26582;SDS011;14230;45.382;10.998;2022-09-03T06:51:29;10.77;;;6.78;;
26582;SDS011;14230;45.382;10.998;2022-09-03T06:53:58;9.50;;;4.85;;
26582;SDS011;14230;45.382;10.998;2022-09-03T06:56:27;5.47;;;3.60;;
26582;SDS011;14230;45.382;10.998;2022-09-03T06:58:58;7.38;;;3.33;;
26582;SDS011;14230;45.382;10.998;2022-09-03T07:01:30;7.95;;;3.42;;
26582;SDS011;14230;45.382;10.998;2022-09-03T07:04:00;7.38;;;2.97;;
26582;SDS011;14230;45.382;10.998;2022-09-03T07:06:30;5.07;;;2.90;;
26582;SDS011;14230;45.382;10.998;2022-09-03T07:08:59;9.73;;;3.35;;
26582;SDS011;14230;45.382;10.998;2022-09-03T07:11:28;4.70;;;3.35;;
26582;SDS011;14230;45.382;10.998;2022-09-03T07:13:57;9.95;;;3.42;;
26582;SDS011;14230;45.382;10.998;2022-09-03T07:16:26;7.32;;;3.60;;
26582;SDS011;14230;45.382;10.998;2022-09-03T07:18:59;9.90;;;5.15;;
26582;SDS011;14230;45.382;10.998;2022-09-03T07:21:27;14.23;;;5.63;;
26582;SDS011;14230;45.382;10.998;2022-09-03T07:23:56;9.80;;;4.28;;
26582;SDS011;14230;45.382;10.998;2022-09-03T07:26:25;14.18;;;5.43;;
26582;SDS011;14230;45.382;10.998;2022-09-03T07:28:57;6.55;;;3.30;;
26582;SDS011;14230;45.382;10.998;2022-09-03T07:31:27;8.38;;;2.88;;
26582;SDS011;14230;45.382;10.998;2022-09-03T07:34:00;5.25;;;2.75;;
26582;SDS011;14230;45.382;10.998;2022-09-03T07:39:05;9.82;;;3.00;;
26582;SDS011;14230;45.382;10.998;2022-09-03T07:41:32;8.48;;;3.15;;
26582;SDS011;14230;45.382;10.998;2022-09-03T07:43:59;5.43;;;1.90;;
26582;SDS011;14230;45.382;10.998;2022-09-03T07:46:32;4.45;;;2.15;;
26582;SDS011;14230;45.382;10.998;2022-09-03T07:49:02;9.27;;;2.90;;
26582;SDS011;14230;45.382;10.998;2022-09-03T07:51:33;7.53;;;2.30;;
26582;SDS011;14230;45.382;10.998;2022-09-03T07:54:02;8.75;;;2.25;;
26582;SDS011;14230;45.382;10.998;2022-09-03T07:56:33;4.80;;;2.10;;
26582;SDS011;14230;45.382;10.998;2022-09-03T07:59:02;4.03;;;2.45;;
26582;SDS011;14230;45.382;10.998;2022-09-03T08:01:31;7.18;;;2.08;;
26582;SDS011;14230;45.382;10.998;2022-09-03T08:04:00;3.13;;;2.05;;
26582;SDS011;14230;45.382;10.998;2022-09-03T08:06:30;4.57;;;1.95;;
26582;SDS011;14230;45.382;10.998;2022-09-03T08:09:03;9.75;;;3.63;;
26582;SDS011;14230;45.382;10.998;2022-09-03T08:11:34;4.15;;;2.40;;
26582;SDS011;14230;45.382;10.998;2022-09-03T08:14:04;16.88;;;6.50;;
26582;SDS011;14230;45.382;10.998;2022-09-03T08:16:35;3.83;;;1.80;;
26582;SDS011;14230;45.382;10.998;2022-09-03T08:19:10;5.78;;;2.72;;
26582;SDS011;14230;45.382;10.998;2022-09-03T08:21:39;7.38;;;4.18;;
26582;SDS011;14230;45.382;10.998;2022-09-03T08:24:10;5.35;;;3.92;;
26582;SDS011;14230;45.382;10.998;2022-09-03T08:26:39;5.13;;;2.38;;
26582;SDS011;14230;45.382;10.998;2022-09-03T08:29:17;6.53;;;2.55;;
26582;SDS011;14230;45.382;10.998;2022-09-03T08:31:45;6.05;;;2.08;;
26582;SDS011;14230;45.382;10.998;2022-09-03T08:34:13;5.15;;;2.53;;
26582;SDS011;14230;45.382;10.998;2022-09-03T08:36:42;3.28;;;2.05;;
26582;SDS011;14230;45.382;10.998;2022-09-03T08:39:12;2.55;;;1.80;;
26582;SDS011;14230;45.382;10.998;2022-09-03T08:42:04;1.77;;;1.63;;
26582;SDS011;14230;45.382;10.998;2022-09-03T08:44:54;2.25;;;1.50;;
26582;SDS011;14230;45.382;10.998;2022-09-03T08:47:47;2.50;;;1.40;;
26582;SDS011;14230;45.382;10.998;2022-09-03T08:50:25;5.30;;;1.80;;
26582;SDS011;14230;45.382;10.998;2022-09-03T08:52:58;5.20;;;1.67;;
26582;SDS011;14230;45.382;10.998;2022-09-03T08:58:24;1.80;;;1.55;;
26582;SDS011;14230;45.382;10.998;2022-09-03T09:01:01;3.53;;;2.08;;
26582;SDS011;14230;45.382;10.998;2022-09-03T09:06:32;2.35;;;1.75;;
26582;SDS011;14230;45.382;10.998;2022-09-03T09:14:43;1.85;;;1.27;;
26582;SDS011;14230;45.382;10.998;2022-09-03T09:25:19;12.77;;;5.88;;
26582;SDS011;14230;45.382;10.998;2022-09-03T09:28:02;5.07;;;1.83;;
26582;SDS011;14230;45.382;10.998;2022-09-03T09:30:37;4.40;;;3.65;;
26582;SDS011;14230;45.382;10.998;2022-09-03T09:33:06;3.53;;;2.20;;
26582;SDS011;14230;45.382;10.998;2022-09-03T09:35:33;2.85;;;1.95;;
26582;SDS011;14230;45.382;10.998;2022-09-03T09:38:00;2.67;;;2.03;;
26582;SDS011;14230;45.382;10.998;2022-09-03T09:40:32;2.90;;;1.90;;
26582;SDS011;14230;45.382;10.998;2022-09-03T09:43:12;4.70;;;2.05;;
26582;SDS011;14230;45.382;10.998;2022-09-03T09:45:47;2.92;;;1.55;;
26582;SDS011;14230;45.382;10.998;2022-09-03T09:48:19;2.00;;;1.45;;
26582;SDS011;14230;45.382;10.998;2022-09-03T09:51:30;5.50;;;1.50;;
26582;SDS011;14230;45.382;10.998;2022-09-03T09:56:41;2.13;;;1.48;;
26582;SDS011;14230;45.382;10.998;2022-09-03T09:59:10;4.50;;;1.65;;
26582;SDS011;14230;45.382;10.998;2022-09-03T10:01:40;2.58;;;1.80;;
26582;SDS011;14230;45.382;10.998;2022-09-03T10:04:11;4.75;;;1.60;;
26582;SDS011;14230;45.382;10.998;2022-09-03T10:07:52;5.20;;;1.92;;
26582;SDS011;14230;45.382;10.998;2022-09-03T10:13:13;3.55;;;2.50;;
26582;SDS011;14230;45.382;10.998;2022-09-03T10:18:06;4.97;;;1.70;;
26582;SDS011;14230;45.382;10.998;2022-09-03T10:20:59;6.43;;;2.10;;
26582;SDS011;14230;45.382;10.998;2022-09-03T10:23:49;2.17;;;1.55;;
26582;SDS011;14230;45.382;10.998;2022-09-03T10:26:22;4.10;;;1.70;;
26582;SDS011;14230;45.382;10.998;2022-09-03T10:28:59;3.60;;;1.40;;
26582;SDS011;14230;45.382;10.998;2022-09-03T10:34:30;3.13;;;1.98;;
26582;SDS011;14230;45.382;10.998;2022-09-03T10:42:42;2.45;;;1.50;;
26582;SDS011;14230;45.382;10.998;2022-09-03T10:45:16;2.35;;;1.60;;
26582;SDS011;14230;45.382;10.998;2022-09-03T10:47:54;4.38;;;1.60;;
26582;SDS011;14230;45.382;10.998;2022-09-03T10:55:47;2.20;;;1.50;;
26582;SDS011;14230;45.382;10.998;2022-09-03T11:01:36;4.00;;;2.13;;
26582;SDS011;14230;45.382;10.998;2022-09-03T11:06:54;4.80;;;1.95;;
26582;SDS011;14230;45.382;10.998;2022-09-03T11:12:18;3.33;;;1.88;;
26582;SDS011;14230;45.382;10.998;2022-09-03T11:14:56;2.85;;;1.60;;
26582;SDS011;14230;45.382;10.998;2022-09-03T11:17:32;3.38;;;2.00;;
26582;SDS011;14230;45.382;10.998;2022-09-03T11:22:48;3.42;;;2.00;;
26582;SDS011;14230;45.382;10.998;2022-09-03T11:25:20;3.03;;;2.10;;
26582;SDS011;14230;45.382;10.998;2022-09-03T11:30:51;3.53;;;2.17;;
26582;SDS011;14230;45.382;10.998;2022-09-03T11:33:32;5.90;;;1.90;;
26582;SDS011;14230;45.382;10.998;2022-09-03T11:36:04;3.15;;;1.92;;
26582;SDS011;14230;45.382;10.998;2022-09-03T11:38:32;3.40;;;1.95;;
26582;SDS011;14230;45.382;10.998;2022-09-03T11:41:11;3.40;;;1.67;;
26582;SDS011;14230;45.382;10.998;2022-09-03T11:43:48;2.50;;;2.00;;
26582;SDS011;14230;45.382;10.998;2022-09-03T11:48:53;3.55;;;2.40;;
26582;SDS011;14230;45.382;10.998;2022-09-03T11:51:36;3.90;;;1.90;;
26582;SDS011;14230;45.382;10.998;2022-09-03T11:56:46;2.95;;;2.20;;
26582;SDS011;14230;45.382;10.998;2022-09-03T11:59:21;2.17;;;1.90;;
26582;SDS011;14230;45.382;10.998;2022-09-03T12:01:51;3.45;;;1.83;;
26582;SDS011;14230;45.382;10.998;2022-09-03T12:04:29;3.72;;;2.13;;
26582;SDS011;14230;45.382;10.998;2022-09-03T12:18:11;2.90;;;2.30;;
26582;SDS011;14230;45.382;10.998;2022-09-03T12:20:47;7.22;;;2.20;;
26582;SDS011;14230;45.382;10.998;2022-09-03T12:26:01;2.17;;;1.98;;
26582;SDS011;14230;45.382;10.998;2022-09-03T12:28:34;4.15;;;2.28;;
26582;SDS011;14230;45.382;10.998;2022-09-03T12:31:08;9.82;;;2.58;;
26582;SDS011;14230;45.382;10.998;2022-09-03T12:33:52;2.30;;;2.10;;
26582;SDS011;14230;45.382;10.998;2022-09-03T12:36:22;6.68;;;3.20;;
26582;SDS011;14230;45.382;10.998;2022-09-03T12:38:49;3.22;;;2.50;;
26582;SDS011;14230;45.382;10.998;2022-09-03T12:41:37;4.05;;;2.40;;
26582;SDS011;14230;45.382;10.998;2022-09-03T12:44:05;5.75;;;2.50;;
26582;SDS011;14230;45.382;10.998;2022-09-03T12:46:32;5.57;;;2.80;;
26582;SDS011;14230;45.382;10.998;2022-09-03T12:49:02;5.32;;;2.20;;
26582;SDS011;14230;45.382;10.998;2022-09-03T12:51:51;2.80;;;2.30;;
26582;SDS011;14230;45.382;10.998;2022-09-03T12:54:33;4.32;;;2.60;;
26582;SDS011;14230;45.382;10.998;2022-09-03T12:57:03;3.20;;;2.33;;
26582;SDS011;14230;45.382;10.998;2022-09-03T12:59:32;5.00;;;2.40;;
26582;SDS011;14230;45.382;10.998;2022-09-03T13:02:04;2.25;;;1.75;;
26582;SDS011;14230;45.382;10.998;2022-09-03T13:04:40;15.57;;;2.42;;
26582;SDS011;14230;45.382;10.998;2022-09-03T13:07:13;4.93;;;2.38;;
26582;SDS011;14230;45.382;10.998;2022-09-03T13:09:49;13.82;;;2.10;;
26582;SDS011;14230;45.382;10.998;2022-09-03T13:12:27;3.53;;;2.47;;
26582;SDS011;14230;45.382;10.998;2022-09-03T13:25:47;4.95;;;2.35;;
26582;SDS011;14230;45.382;10.998;2022-09-03T13:28:19;8.93;;;2.17;;
26582;SDS011;14230;45.382;10.998;2022-09-03T13:33:49;3.90;;;2.05;;
26582;SDS011;14230;45.382;10.998;2022-09-03T13:36:25;3.42;;;1.95;;
26582;SDS011;14230;45.382;10.998;2022-09-03T13:39:05;4.68;;;2.28;;
26582;SDS011;14230;45.382;10.998;2022-09-03T13:41:47;23.50;;;3.80;;
26582;SDS011;14230;45.382;10.998;2022-09-03T13:47:00;2.75;;;1.90;;
26582;SDS011;14230;45.382;10.998;2022-09-03T13:49:52;4.70;;;2.35;;
26582;SDS011;14230;45.382;10.998;2022-09-03T13:58:05;3.00;;;2.33;;
26582;SDS011;14230;45.382;10.998;2022-09-03T14:00:42;2.83;;;2.20;;
26582;SDS011;14230;45.382;10.998;2022-09-03T14:03:22;3.67;;;2.60;;
26582;SDS011;14230;45.382;10.998;2022-09-03T14:06:06;5.72;;;2.28;;
26582;SDS011;14230;45.382;10.998;2022-09-03T14:20:43;13.30;;;2.63;;
26582;SDS011;14230;45.382;10.998;2022-09-03T14:26:14;6.05;;;2.80;;
26582;SDS011;14230;45.382;10.998;2022-09-03T14:31:50;7.80;;;3.08;;
26582;SDS011;14230;45.382;10.998;2022-09-03T14:44:11;4.72;;;2.70;;
26582;SDS011;14230;45.382;10.998;2022-09-03T14:49:13;8.85;;;3.13;;
26582;SDS011;14230;45.382;10.998;2022-09-03T14:57:29;14.98;;;2.70;;
26582;SDS011;14230;45.382;10.998;2022-09-03T15:09:31;5.28;;;2.90;;
26582;SDS011;14230;45.382;10.998;2022-09-03T15:12:15;7.30;;;2.67;;
26582;SDS011;14230;45.382;10.998;2022-09-03T15:14:52;7.13;;;2.80;;
26582;SDS011;14230;45.382;10.998;2022-09-03T15:20:18;5.82;;;2.83;;
26582;SDS011;14230;45.382;10.998;2022-09-03T15:23:01;7.78;;;2.70;;
26582;SDS011;14230;45.382;10.998;2022-09-03T15:28:23;5.97;;;2.72;;
26582;SDS011;14230;45.382;10.998;2022-09-03T15:36:45;6.22;;;2.17;;
26582;SDS011;14230;45.382;10.998;2022-09-03T15:39:27;9.55;;;2.83;;
26582;SDS011;14230;45.382;10.998;2022-09-03T15:42:00;2.50;;;2.30;;
26582;SDS011;14230;45.382;10.998;2022-09-03T15:44:34;2.42;;;1.88;;
26582;SDS011;14230;45.382;10.998;2022-09-03T15:47:11;6.78;;;2.88;;
26582;SDS011;14230;45.382;10.998;2022-09-03T15:56:01;7.90;;;2.22;;
26582;SDS011;14230;45.382;10.998;2022-09-03T15:58:38;6.60;;;2.00;;
26582;SDS011;14230;45.382;10.998;2022-09-03T16:06:37;4.70;;;2.38;;
26582;SDS011;14230;45.382;10.998;2022-09-03T16:15:48;3.10;;;1.90;;
26582;SDS011;14230;45.382;10.998;2022-09-03T16:29:06;7.40;;;2.30;;
26582;SDS011;14230;45.382;10.998;2022-09-03T16:51:51;2.83;;;2.50;;
26582;SDS011;14230;45.382;10.998;2022-09-03T16:57:33;6.18;;;2.60;;
26582;SDS011;14230;45.382;10.998;2022-09-03T17:00:16;3.30;;;2.60;;
26582;SDS011;14230;45.382;10.998;2022-09-03T17:05:37;8.98;;;2.80;;
26582;SDS011;14230;45.382;10.998;2022-09-03T17:10:48;5.03;;;2.50;;
26582;SDS011;14230;45.382;10.998;2022-09-03T17:41:49;9.10;;;2.60;;
26582;SDS011;14230;45.382;10.998;2022-09-03T17:50:20;9.63;;;3.05;;
26582;SDS011;14230;45.382;10.998;2022-09-03T17:52:56;5.30;;;3.08;;
26582;SDS011;14230;45.382;10.998;2022-09-03T17:55:32;9.52;;;3.00;;
26582;SDS011;14230;45.382;10.998;2022-09-03T17:58:23;5.05;;;3.28;;
26582;SDS011;14230;45.382;10.998;2022-09-03T18:03:50;4.22;;;3.08;;
26582;SDS011;14230;45.382;10.998;2022-09-03T18:11:39;11.10;;;3.00;;
26582;SDS011;14230;45.382;10.998;2022-09-03T18:22:49;7.93;;;4.60;;
26582;SDS011;14230;45.382;10.998;2022-09-03T18:25:52;8.45;;;4.88;;
26582;SDS011;14230;45.382;10.998;2022-09-03T18:28:51;11.38;;;4.93;;
26582;SDS011;14230;45.382;10.998;2022-09-03T18:31:43;14.07;;;4.10;;
26582;SDS011;14230;45.382;10.998;2022-09-03T18:34:30;5.78;;;4.07;;
26582;SDS011;14230;45.382;10.998;2022-09-03T18:37:19;7.88;;;4.70;;
26582;SDS011;14230;45.382;10.998;2022-09-03T18:40:08;9.02;;;4.55;;
26582;SDS011;14230;45.382;10.998;2022-09-03T18:58:38;11.40;;;5.47;;
26582;SDS011;14230;45.382;10.998;2022-09-03T19:01:45;11.13;;;5.50;;
26582;SDS011;14230;45.382;10.998;2022-09-03T19:10:49;6.47;;;4.47;;
26582;SDS011;14230;45.382;10.998;2022-09-03T19:13:39;7.45;;;4.80;;
26582;SDS011;14230;45.382;10.998;2022-09-03T19:22:43;11.43;;;5.50;;
26582;SDS011;14230;45.382;10.998;2022-09-03T19:25:29;11.85;;;10.10;;
26582;SDS011;14230;45.382;10.998;2022-09-03T19:28:19;36.28;;;23.77;;
26582;SDS011;14230;45.382;10.998;2022-09-03T19:34:51;26.75;;;19.45;;
26582;SDS011;14230;45.382;10.998;2022-09-03T19:37:48;9.63;;;5.63;;
26582;SDS011;14230;45.382;10.998;2022-09-03T19:46:56;7.82;;;4.97;;
26582;SDS011;14230;45.382;10.998;2022-09-03T19:53:02;9.40;;;5.65;;
26582;SDS011;14230;45.382;10.998;2022-09-03T19:55:57;7.00;;;5.22;;
26582;SDS011;14230;45.382;10.998;2022-09-03T19:58:46;14.73;;;5.45;;
26582;SDS011;14230;45.382;10.998;2022-09-03T20:01:39;6.82;;;4.55;;
26582;SDS011;14230;45.382;10.998;2022-09-03T20:04:28;11.20;;;5.22;;
26582;SDS011;14230;45.382;10.998;2022-09-03T20:07:23;8.63;;;5.38;;
26582;SDS011;14230;45.382;10.998;2022-09-03T20:10:10;11.82;;;5.18;;
26582;SDS011;14230;45.382;10.998;2022-09-03T20:13:01;7.43;;;4.90;;
26582;SDS011;14230;45.382;10.998;2022-09-03T20:15:42;7.35;;;4.15;;
26582;SDS011;14230;45.382;10.998;2022-09-03T20:18:24;12.23;;;6.43;;
26582;SDS011;14230;45.382;10.998;2022-09-03T20:24:07;15.63;;;6.55;;
26582;SDS011;14230;45.382;10.998;2022-09-03T20:52:28;7.95;;;6.75;;
26582;SDS011;14230;45.382;10.998;2022-09-03T20:55:25;12.10;;;6.85;;
26582;SDS011;14230;45.382;10.998;2022-09-03T21:01:14;9.50;;;5.70;;
26582;SDS011;14230;45.382;10.998;2022-09-03T21:03:57;7.57;;;6.15;;
26582;SDS011;14230;45.382;10.998;2022-09-03T21:10:07;10.88;;;5.78;;
26582;SDS011;14230;45.382;10.998;2022-09-03T21:13:01;13.73;;;5.63;;
26582;SDS011;14230;45.382;10.998;2022-09-03T21:15:44;13.20;;;5.85;;
26582;SDS011;14230;45.382;10.998;2022-09-03T21:21:20;17.48;;;5.18;;
26582;SDS011;14230;45.382;10.998;2022-09-03T21:24:07;8.32;;;5.00;;
26582;SDS011;14230;45.382;10.998;2022-09-03T21:26:42;7.15;;;6.22;;
26582;SDS011;14230;45.382;10.998;2022-09-03T21:34:24;4.82;;;4.35;;
26582;SDS011;14230;45.382;10.998;2022-09-03T21:36:56;5.57;;;4.22;;
26582;SDS011;14230;45.382;10.998;2022-09-03T21:39:33;7.65;;;4.63;;
26582;SDS011;14230;45.382;10.998;2022-09-03T21:42:16;5.85;;;4.72;;
26582;SDS011;14230;45.382;10.998;2022-09-03T21:45:13;8.90;;;4.35;;
26582;SDS011;14230;45.382;10.998;2022-09-03T21:48:06;7.65;;;5.20;;
26582;SDS011;14230;45.382;10.998;2022-09-03T21:50:44;8.40;;;4.55;;
26582;SDS011;14230;45.382;10.998;2022-09-03T21:58:28;7.47;;;4.20;;
26582;SDS011;14230;45.382;10.998;2022-09-03T22:01:20;6.47;;;4.35;;
26582;SDS011;14230;45.382;10.998;2022-09-03T22:04:11;13.13;;;5.40;;
26582;SDS011;14230;45.382;10.998;2022-09-03T22:09:19;9.52;;;4.93;;
26582;SDS011;14230;45.382;10.998;2022-09-03T22:14:50;5.53;;;4.93;;